createdAt,value
2023-05-20T00:00:41.498Z,13.68
2023-05-20T00:03:21.155Z,16.50
2023-05-20T00:05:49.585Z,13.23
2023-05-20T00:08:19.422Z,13.23
2023-05-20T00:10:47.873Z,15.85
2023-05-20T00:13:15.874Z,14.40
2023-05-20T00:15:44.214Z,16.42
2023-05-20T00:18:12.220Z,12.10
2023-05-20T00:20:40.500Z,9.77
2023-05-20T00:23:08.521Z,15.20
2023-05-20T00:25:37.119Z,10.30
2023-05-20T00:28:06.668Z,11.95
2023-05-20T00:30:35.985Z,10.60
2023-05-20T00:33:04.497Z,13.27
2023-05-20T00:35:32.773Z,8.68
2023-05-20T00:38:00.674Z,9.75
2023-05-20T00:40:28.948Z,12.93
2023-05-20T00:42:57.140Z,9.00
2023-05-20T00:45:26.034Z,12.73
2023-05-20T00:47:54.365Z,11.80
2023-05-20T00:50:22.952Z,9.13
2023-05-20T00:52:51.856Z,9.20
2023-05-20T00:55:19.969Z,8.63
2023-05-20T00:57:51.345Z,10.45
2023-05-20T01:00:19.825Z,7.50
2023-05-20T01:02:47.696Z,9.98
2023-05-20T01:05:16.106Z,11.18
2023-05-20T01:07:44.094Z,11.85
2023-05-20T01:10:12.883Z,10.27
2023-05-20T01:12:47.175Z,7.63
2023-05-20T01:15:16.745Z,9.60
2023-05-20T01:17:47.445Z,7.53
2023-05-20T01:20:16.327Z,11.20
2023-05-20T01:22:48.578Z,15.52
2023-05-20T01:25:17.027Z,12.73
2023-05-20T01:27:49.411Z,15.93
2023-05-20T01:30:18.051Z,12.77
2023-05-20T01:32:51.408Z,10.00
2023-05-20T01:35:22.726Z,6.57
2023-05-20T01:37:52.752Z,7.90
2023-05-20T01:40:22.103Z,7.55
2023-05-20T01:42:53.607Z,8.23
2023-05-20T01:45:22.341Z,8.38
2023-05-20T01:47:50.344Z,5.68
2023-05-20T01:50:18.721Z,6.60
2023-05-20T01:52:46.726Z,11.18
2023-05-20T01:55:15.171Z,13.10
2023-05-20T01:57:43.030Z,13.55
2023-05-20T02:00:11.900Z,16.00
2023-05-20T02:02:42.744Z,13.73
2023-05-20T02:05:13.629Z,11.98
2023-05-20T02:07:43.798Z,10.75
2023-05-20T02:10:12.103Z,17.42
2023-05-20T02:12:40.156Z,13.15
2023-05-20T02:15:08.855Z,13.40
2023-05-20T02:17:37.757Z,12.30
2023-05-20T02:20:08.016Z,11.75
2023-05-20T02:22:36.054Z,12.23
2023-05-20T02:25:05.828Z,11.90
2023-05-20T02:27:33.719Z,8.27
2023-05-20T02:30:02.112Z,9.40
2023-05-20T02:32:30.126Z,8.50
2023-05-20T02:34:58.312Z,7.43
2023-05-20T02:37:26.229Z,10.10
2023-05-20T02:39:56.777Z,9.68
2023-05-20T02:42:24.417Z,10.45
2023-05-20T02:44:56.472Z,8.50
2023-05-20T02:47:25.718Z,8.25
2023-05-20T02:49:53.898Z,7.38
2023-05-20T02:52:22.310Z,9.90
2023-05-20T02:54:50.902Z,8.00
2023-05-20T02:57:19.563Z,8.07
2023-05-20T02:59:48.326Z,7.57
2023-05-20T03:02:16.638Z,8.88
2023-05-20T03:04:47.171Z,6.32
2023-05-20T03:07:17.954Z,8.23
2023-05-20T03:09:46.467Z,9.15
2023-05-20T03:12:14.324Z,4.72
2023-05-20T03:14:42.973Z,9.18
2023-05-20T03:17:11.844Z,7.32
2023-05-20T03:19:41.717Z,6.72
2023-05-20T03:22:09.817Z,7.82
2023-05-20T03:24:37.866Z,7.13
2023-05-20T03:27:07.195Z,6.60
2023-05-20T03:29:36.796Z,7.30
2023-05-20T03:32:04.862Z,6.80
2023-05-20T03:34:33.238Z,6.88
2023-05-20T03:37:02.598Z,7.75
2023-05-20T03:39:31.314Z,8.95
2023-05-20T03:41:59.309Z,7.68
2023-05-20T03:44:27.740Z,6.63
2023-05-20T03:46:55.538Z,12.48
2023-05-20T03:49:24.198Z,9.20
2023-05-20T03:51:52.636Z,6.93
2023-05-20T03:54:20.999Z,7.85
2023-05-20T03:56:52.203Z,9.18
2023-05-20T03:59:20.338Z,8.02
2023-05-20T04:01:47.968Z,8.27
2023-05-20T04:04:16.372Z,7.25
2023-05-20T04:06:44.598Z,7.38
2023-05-20T04:09:13.833Z,7.20
2023-05-20T04:11:41.619Z,8.45
2023-05-20T04:14:10.979Z,5.65
2023-05-20T04:16:39.064Z,6.68
2023-05-20T04:19:07.781Z,7.43
2023-05-20T04:21:35.661Z,8.93
2023-05-20T04:24:04.524Z,11.07
2023-05-20T04:26:34.275Z,6.70
2023-05-20T04:29:04.636Z,7.85
2023-05-20T04:31:34.655Z,6.88
2023-05-20T04:34:03.418Z,8.32
2023-05-20T04:36:31.397Z,8.40
2023-05-20T04:39:01.925Z,7.45
2023-05-20T04:41:30.390Z,5.65
2023-05-20T04:44:02.094Z,8.88
2023-05-20T04:46:31.919Z,4.88
2023-05-20T04:49:00.294Z,6.50
2023-05-20T04:51:29.832Z,10.40
2023-05-20T04:53:59.446Z,5.20
2023-05-20T04:56:30.090Z,8.88
2023-05-20T04:58:58.929Z,8.52
2023-05-20T05:01:26.745Z,5.63
2023-05-20T05:03:55.823Z,5.55
2023-05-20T05:06:23.891Z,8.20
2023-05-20T05:08:52.395Z,8.25
2023-05-20T05:11:20.223Z,7.05
2023-05-20T05:13:48.757Z,10.00
2023-05-20T05:16:17.166Z,5.60
2023-05-20T05:18:45.482Z,5.95
2023-05-20T05:21:13.343Z,8.13
2023-05-20T05:23:42.812Z,5.85
2023-05-20T05:26:10.724Z,6.05
2023-05-20T05:28:38.890Z,8.30
2023-05-20T05:31:07.718Z,10.32
2023-05-20T05:33:36.328Z,9.98
2023-05-20T05:36:04.999Z,7.63
2023-05-20T05:38:33.637Z,8.35
2023-05-20T05:41:02.051Z,6.80
2023-05-20T05:43:30.984Z,16.08
2023-05-20T05:45:59.347Z,6.47
2023-05-20T05:48:27.875Z,9.02
2023-05-20T05:50:56.236Z,4.13
2023-05-20T05:53:24.866Z,8.15
2023-05-20T05:55:53.285Z,10.70
2023-05-20T05:58:21.805Z,6.93
2023-05-20T06:00:53.342Z,7.32
2023-05-20T06:03:21.982Z,8.25
2023-05-20T06:05:50.256Z,6.47
2023-05-20T06:08:21.808Z,7.25
2023-05-20T06:10:50.645Z,9.23
2023-05-20T06:13:19.308Z,9.98
2023-05-20T06:15:50.003Z,11.45
2023-05-20T06:18:18.482Z,6.38
2023-05-20T06:20:47.024Z,8.88
2023-05-20T06:23:15.082Z,8.10
2023-05-20T06:26:08.575Z,6.55
2023-05-20T06:28:37.829Z,10.93
2023-05-20T06:31:06.702Z,7.03
2023-05-20T06:33:37.154Z,7.07
2023-05-20T06:36:11.850Z,4.88
2023-05-20T06:38:40.385Z,8.60
2023-05-20T06:41:08.907Z,9.23
2023-05-20T06:43:37.278Z,10.05
2023-05-20T06:46:09.979Z,8.65
2023-05-20T06:48:47.782Z,7.25
2023-05-20T06:51:15.657Z,11.00
2023-05-20T06:53:47.118Z,7.70
2023-05-20T06:56:15.772Z,8.18
2023-05-20T06:58:45.472Z,11.02
2023-05-20T07:01:13.892Z,6.15
2023-05-20T07:03:44.904Z,7.03
2023-05-20T07:06:13.373Z,8.98
2023-05-20T07:08:41.666Z,11.52
2023-05-20T07:11:10.221Z,5.40
2023-05-20T07:13:38.685Z,10.35
2023-05-20T07:16:07.380Z,10.50
2023-05-20T07:18:38.604Z,9.80
2023-05-20T07:21:07.045Z,6.93
2023-05-20T07:23:53.695Z,13.55
2023-05-20T07:26:22.326Z,8.57
2023-05-20T07:28:50.958Z,10.02
2023-05-20T07:31:18.892Z,11.48
2023-05-20T07:33:47.474Z,11.35
2023-05-20T07:36:15.526Z,8.52
2023-05-20T07:39:00.980Z,6.85
2023-05-20T07:41:32.081Z,12.27
2023-05-20T07:44:03.746Z,6.10
2023-05-20T07:46:33.156Z,8.40
2023-05-20T07:49:01.711Z,9.50
2023-05-20T07:51:29.555Z,11.10
2023-05-20T07:53:58.512Z,4.45
2023-05-20T07:56:27.716Z,18.95
2023-05-20T07:58:58.709Z,10.50
2023-05-20T08:01:31.426Z,8.75
2023-05-20T08:04:00.488Z,9.95
2023-05-20T08:06:29.892Z,9.27
2023-05-20T08:08:59.149Z,9.82
2023-05-20T08:14:02.381Z,7.03
2023-05-20T08:16:36.795Z,11.70
2023-05-20T08:19:04.931Z,6.80
2023-05-20T08:21:33.529Z,7.80
2023-05-20T08:24:01.877Z,11.23
2023-05-20T08:26:30.189Z,10.27
2023-05-20T08:28:58.476Z,9.10
2023-05-20T08:31:26.978Z,10.57
2023-05-20T08:33:55.550Z,10.45
2023-05-20T08:36:24.241Z,6.00
2023-05-20T08:38:52.693Z,12.02
2023-05-20T08:41:22.548Z,11.98
2023-05-20T08:43:51.608Z,6.82
2023-05-20T08:46:23.005Z,13.95
2023-05-20T08:48:51.824Z,8.95
2023-05-20T08:51:24.362Z,9.98
2023-05-20T08:53:52.788Z,4.68
2023-05-20T08:56:20.639Z,9.48
2023-05-20T08:58:49.070Z,8.48
2023-05-20T09:01:17.412Z,9.43
2023-05-20T09:03:46.511Z,7.10
2023-05-20T09:06:21.443Z,10.60
2023-05-20T09:08:50.737Z,12.05
2023-05-20T09:11:19.332Z,7.80
2023-05-20T09:13:47.711Z,8.50
2023-05-20T09:16:16.211Z,7.82
2023-05-20T09:18:43.936Z,14.98
2023-05-20T09:21:12.241Z,13.30
2023-05-20T09:23:40.811Z,9.52
2023-05-20T09:26:08.593Z,11.20
2023-05-20T09:28:38.586Z,11.77
2023-05-20T09:31:07.442Z,6.07
2023-05-20T09:33:36.098Z,9.55
2023-05-20T09:36:09.299Z,9.73
2023-05-20T09:38:40.135Z,10.70
2023-05-20T09:41:09.767Z,8.75
2023-05-20T09:43:40.249Z,9.45
2023-05-20T09:46:08.949Z,8.88
2023-05-20T09:48:37.959Z,6.70
2023-05-20T09:51:07.501Z,14.43
2023-05-20T09:53:36.393Z,12.38
2023-05-20T09:56:04.477Z,10.23
2023-05-20T09:58:34.761Z,8.93
2023-05-20T10:01:02.865Z,8.75
2023-05-20T10:03:32.512Z,11.48
2023-05-20T10:06:37.856Z,10.15
2023-05-20T10:09:24.003Z,8.25
2023-05-20T10:12:29.124Z,9.35
2023-05-20T10:15:23.404Z,9.38
2023-05-20T10:18:10.101Z,7.72
2023-05-20T10:20:51.444Z,10.25
2023-05-20T10:23:23.136Z,7.93
2023-05-20T10:25:53.694Z,7.85
2023-05-20T10:28:38.033Z,8.40
2023-05-20T10:31:25.994Z,7.00
2023-05-20T10:33:54.455Z,14.15
2023-05-20T10:36:27.389Z,10.60
2023-05-20T10:38:59.704Z,12.00
2023-05-20T10:44:05.849Z,8.85
2023-05-20T10:46:48.633Z,10.48
2023-05-20T10:49:26.160Z,11.30
2023-05-20T10:51:55.840Z,8.27
2023-05-20T10:54:23.950Z,8.13
2023-05-20T10:56:53.904Z,6.43
2023-05-20T10:59:22.491Z,10.57
2023-05-20T11:01:51.558Z,10.32
2023-05-20T11:04:20.023Z,8.25
2023-05-20T11:06:54.539Z,12.55
2023-05-20T11:09:23.010Z,9.52
2023-05-20T11:11:55.583Z,13.13
2023-05-20T11:14:23.509Z,9.05
2023-05-20T11:16:53.887Z,7.70
2023-05-20T11:19:22.213Z,9.60
2023-05-20T11:21:51.745Z,9.43
2023-05-20T11:24:27.726Z,10.60
2023-05-20T11:26:57.689Z,9.00
2023-05-20T11:29:27.148Z,11.65
2023-05-20T11:31:55.867Z,8.70
2023-05-20T11:34:26.784Z,8.65
2023-05-20T11:36:58.118Z,8.48
2023-05-20T11:39:27.892Z,13.02
2023-05-20T11:41:56.595Z,8.52
2023-05-20T11:44:25.072Z,8.18
2023-05-20T11:47:01.051Z,15.63
2023-05-20T11:49:29.300Z,9.05
2023-05-20T11:51:58.082Z,8.00
2023-05-20T11:54:26.509Z,10.02
2023-05-20T11:56:56.174Z,10.25
2023-05-20T11:59:25.257Z,11.32
2023-05-20T12:01:53.543Z,15.27
2023-05-20T12:04:22.222Z,7.60
2023-05-20T12:06:50.689Z,8.15
2023-05-20T12:09:18.484Z,11.25
2023-05-20T12:11:46.671Z,8.35
2023-05-20T12:14:14.921Z,7.30
2023-05-20T12:16:43.272Z,9.07
2023-05-20T12:19:11.514Z,13.70
2023-05-20T12:21:39.885Z,8.98
2023-05-20T12:24:08.824Z,8.25
2023-05-20T12:26:37.450Z,8.48
2023-05-20T12:29:05.727Z,9.57
2023-05-20T12:31:35.085Z,9.02
2023-05-20T12:34:03.285Z,11.68
2023-05-20T12:36:32.886Z,8.88
2023-05-20T12:39:01.388Z,8.40
2023-05-20T12:41:29.344Z,10.68
2023-05-20T12:43:56.807Z,8.30
2023-05-20T12:46:25.211Z,9.65
2023-05-20T12:48:53.692Z,8.32
2023-05-20T12:51:21.799Z,10.20
2023-05-20T12:53:49.982Z,8.93
2023-05-20T12:56:18.985Z,7.65
2023-05-20T12:58:47.086Z,7.95
2023-05-20T13:01:15.743Z,9.40
2023-05-20T13:03:43.475Z,12.15
2023-05-20T13:06:11.832Z,8.55
2023-05-20T13:08:39.905Z,7.28
2023-05-20T13:11:08.184Z,9.55
2023-05-20T13:13:35.954Z,10.35
2023-05-20T13:16:04.781Z,7.45
2023-05-20T13:18:32.725Z,9.52
2023-05-20T13:21:01.242Z,15.23
2023-05-20T13:23:29.242Z,8.35
2023-05-20T13:25:57.773Z,14.18
2023-05-20T13:28:25.696Z,9.43
2023-05-20T13:30:54.063Z,9.18
2023-05-20T13:33:23.763Z,8.60
2023-05-20T13:35:52.237Z,11.73
2023-05-20T13:38:20.170Z,8.48
2023-05-20T13:40:49.507Z,10.82
2023-05-20T13:43:17.378Z,9.70
2023-05-20T13:45:45.924Z,10.60
2023-05-20T13:48:13.812Z,7.78
2023-05-20T13:50:42.415Z,8.57
2023-05-20T13:53:14.112Z,15.05
2023-05-20T13:55:43.068Z,10.25
2023-05-20T13:58:11.198Z,13.05
2023-05-20T14:00:39.930Z,16.77
2023-05-20T14:03:09.567Z,9.52
2023-05-20T14:05:38.160Z,12.90
2023-05-20T14:08:06.452Z,7.03
2023-05-20T14:10:34.908Z,7.50
2023-05-20T14:13:03.327Z,7.53
2023-05-20T14:15:31.833Z,10.23
2023-05-20T14:18:00.599Z,7.55
2023-05-20T14:20:28.723Z,9.38
2023-05-20T14:22:56.615Z,17.33
2023-05-20T14:25:25.262Z,6.88
2023-05-20T14:27:52.958Z,8.13
2023-05-20T14:30:21.250Z,10.50
2023-05-20T14:32:49.332Z,8.38
2023-05-20T14:35:18.654Z,6.47
2023-05-20T14:37:46.477Z,8.40
2023-05-20T14:40:14.886Z,14.02
2023-05-20T14:42:42.720Z,6.38
2023-05-20T14:45:11.363Z,10.02
2023-05-20T14:47:40.775Z,7.70
2023-05-20T14:50:09.665Z,9.68
2023-05-20T14:52:37.721Z,11.52
2023-05-20T14:55:06.863Z,10.35
2023-05-20T14:57:34.696Z,8.73
2023-05-20T15:00:03.222Z,13.50
2023-05-20T15:02:31.790Z,6.38
2023-05-20T15:05:00.463Z,9.35
2023-05-20T15:07:28.268Z,6.28
2023-05-20T15:09:56.905Z,8.82
2023-05-20T15:12:24.674Z,10.25
2023-05-20T15:14:53.299Z,8.60
2023-05-20T15:17:22.021Z,7.40
2023-05-20T15:19:50.470Z,11.48
2023-05-20T15:22:21.821Z,10.15
2023-05-20T15:24:51.881Z,11.30
2023-05-20T15:27:19.780Z,10.70
2023-05-20T15:29:49.226Z,7.82
2023-05-20T15:32:17.937Z,7.63
2023-05-20T15:34:46.523Z,10.90
2023-05-20T15:37:14.344Z,9.82
2023-05-20T15:39:42.723Z,7.53
2023-05-20T15:42:14.386Z,9.80
2023-05-20T15:44:42.946Z,9.05
2023-05-20T15:47:11.060Z,12.98
2023-05-20T15:49:39.545Z,9.05
2023-05-20T15:52:07.471Z,9.95
2023-05-20T15:54:35.994Z,8.25
2023-05-20T15:57:04.566Z,10.15
2023-05-20T15:59:33.175Z,8.10
2023-05-20T16:02:01.092Z,9.77
2023-05-20T16:04:29.749Z,12.30
2023-05-20T16:06:57.891Z,7.57
2023-05-20T16:09:26.522Z,8.85
2023-05-20T16:11:54.665Z,7.95
2023-05-20T16:14:23.231Z,12.20
2023-05-20T16:16:51.135Z,5.97
2023-05-20T16:19:19.836Z,7.97
2023-05-20T16:21:47.965Z,9.27
2023-05-20T16:24:16.641Z,10.60
2023-05-20T16:26:44.904Z,7.38
2023-05-20T16:29:15.668Z,7.15
2023-05-20T16:31:47.233Z,8.60
2023-05-20T16:34:16.910Z,7.35
2023-05-20T16:36:48.277Z,8.00
2023-05-20T16:39:17.022Z,7.85
2023-05-20T16:41:45.479Z,6.65
2023-05-20T16:44:13.502Z,7.53
2023-05-20T16:46:41.747Z,6.90
2023-05-20T16:49:10.461Z,8.20
2023-05-20T16:51:38.471Z,6.10
2023-05-20T16:54:06.815Z,11.02
2023-05-20T16:56:37.270Z,8.13
2023-05-20T16:59:06.127Z,9.32
2023-05-20T17:01:34.240Z,13.15
2023-05-20T17:04:03.529Z,8.32
2023-05-20T17:06:34.569Z,6.50
2023-05-20T17:09:07.502Z,9.90
2023-05-20T17:14:05.660Z,5.35
2023-05-20T17:16:33.735Z,8.60
2023-05-20T17:19:01.679Z,7.38
2023-05-20T17:21:29.402Z,7.40
2023-05-20T17:23:57.734Z,9.95
2023-05-20T17:26:26.221Z,11.07
2023-05-20T17:28:54.819Z,8.15
2023-05-20T17:31:22.773Z,10.63
2023-05-20T17:33:51.455Z,8.68
2023-05-20T17:36:19.632Z,9.05
2023-05-20T17:38:49.470Z,9.85
2023-05-20T17:41:20.290Z,8.05
2023-05-20T17:43:48.685Z,8.80
2023-05-20T17:46:16.728Z,10.50
2023-05-20T17:48:46.330Z,9.55
2023-05-20T17:51:14.380Z,10.55
2023-05-20T17:53:42.681Z,7.35
2023-05-20T17:56:11.460Z,9.10
2023-05-20T17:58:39.605Z,10.15
2023-05-20T18:01:09.820Z,9.45
2023-05-20T18:03:40.205Z,6.57
2023-05-20T18:06:09.073Z,9.90
2023-05-20T18:08:37.287Z,9.70
2023-05-20T18:11:05.549Z,8.45
2023-05-20T18:13:33.769Z,8.77
2023-05-20T18:16:01.898Z,12.68
2023-05-20T18:18:30.377Z,12.80
2023-05-20T18:20:58.340Z,9.63
2023-05-20T18:23:26.981Z,9.73
2023-05-20T18:25:55.585Z,9.20
2023-05-20T18:28:23.732Z,8.88
2023-05-20T18:30:51.615Z,8.98
2023-05-20T18:33:20.144Z,10.10
2023-05-20T18:35:47.908Z,11.15
2023-05-20T18:38:16.343Z,11.68
2023-05-20T18:40:44.312Z,17.35
2023-05-20T18:43:12.920Z,10.02
2023-05-20T18:45:41.343Z,10.45
2023-05-20T18:48:09.992Z,9.93
2023-05-20T18:50:38.090Z,11.32
2023-05-20T18:53:06.589Z,12.88
2023-05-20T18:55:35.232Z,12.82
2023-05-20T18:58:03.300Z,10.45
2023-05-20T19:00:31.567Z,11.68
2023-05-20T19:03:00.277Z,9.77
2023-05-20T19:05:28.276Z,11.18
2023-05-20T19:07:56.851Z,13.25
2023-05-20T19:10:26.201Z,9.35
2023-05-20T19:12:56.333Z,12.90
2023-05-20T19:15:24.471Z,17.25
2023-05-20T19:17:53.037Z,15.80
2023-05-20T19:20:21.077Z,17.38
2023-05-20T19:22:49.720Z,16.52
2023-05-20T19:25:17.722Z,18.58
2023-05-20T19:27:46.300Z,53.53
2023-05-20T19:30:14.071Z,17.50
2023-05-20T19:32:42.659Z,17.05
2023-05-20T19:35:11.245Z,12.85
2023-05-20T19:37:39.747Z,10.43
2023-05-20T19:40:08.466Z,15.38
2023-05-20T19:42:36.951Z,12.48
2023-05-20T19:45:05.311Z,10.75
2023-05-20T19:47:33.954Z,15.57
2023-05-20T19:50:02.507Z,14.68
2023-05-20T19:52:35.268Z,18.48
2023-05-20T19:55:03.706Z,18.75
2023-05-20T19:57:32.240Z,16.17
2023-05-20T20:00:00.234Z,16.15
2023-05-20T20:02:28.654Z,15.75
2023-05-20T20:04:56.803Z,14.50
2023-05-20T20:07:26.505Z,18.88
2023-05-20T20:09:55.926Z,16.38
2023-05-20T20:12:25.083Z,22.27
2023-05-20T20:14:53.003Z,17.20
2023-05-20T20:17:23.445Z,18.77
2023-05-20T20:19:53.794Z,18.40
2023-05-20T20:22:22.315Z,17.38
2023-05-20T20:24:50.347Z,19.00
2023-05-20T20:27:19.801Z,16.13
2023-05-20T20:29:47.970Z,19.67
2023-05-20T20:32:18.282Z,20.08
2023-05-20T20:34:46.963Z,19.80
2023-05-20T20:37:15.550Z,18.52
2023-05-20T20:39:48.621Z,18.70
2023-05-20T20:42:18.868Z,17.42
2023-05-20T20:44:48.378Z,18.85
2023-05-20T20:47:16.856Z,15.50
2023-05-20T20:49:45.784Z,14.25
2023-05-20T20:52:14.238Z,15.93
2023-05-20T20:54:43.322Z,16.50
2023-05-20T20:57:14.017Z,17.73
2023-05-20T20:59:48.025Z,25.63
2023-05-20T21:02:19.185Z,17.95
2023-05-20T21:04:48.028Z,18.25
2023-05-20T21:07:18.832Z,15.88
2023-05-20T21:09:47.175Z,16.95
2023-05-20T21:12:15.404Z,19.77
2023-05-20T21:14:44.613Z,24.02
2023-05-20T21:17:13.664Z,15.98
2023-05-20T21:19:41.401Z,14.93
2023-05-20T21:22:09.982Z,14.73
2023-05-20T21:24:37.848Z,17.65
2023-05-20T21:27:06.822Z,19.38
2023-05-20T21:29:36.168Z,15.43
2023-05-20T21:32:06.108Z,16.65
2023-05-20T21:34:34.194Z,23.15
2023-05-20T21:37:02.251Z,17.40
2023-05-20T21:39:30.695Z,15.60
2023-05-20T21:41:58.881Z,21.25
2023-05-20T21:44:26.688Z,16.17
2023-05-20T21:46:55.323Z,18.42
2023-05-20T21:49:23.165Z,17.00
2023-05-20T21:51:51.822Z,14.82
2023-05-20T21:54:19.640Z,17.80
2023-05-20T21:56:47.905Z,16.95
2023-05-20T21:59:16.551Z,19.33
2023-05-20T22:01:45.284Z,14.75
2023-05-20T22:04:13.330Z,17.40
2023-05-20T22:06:41.990Z,17.40
2023-05-20T22:09:10.013Z,17.90
2023-05-20T22:11:38.442Z,14.00
2023-05-20T22:14:06.596Z,15.07
2023-05-20T22:16:35.344Z,14.75
2023-05-20T22:19:03.819Z,15.52
2023-05-20T22:21:39.651Z,18.48
2023-05-20T22:24:16.399Z,16.95
2023-05-20T22:26:45.277Z,14.45
2023-05-20T22:29:13.215Z,15.55
2023-05-20T22:31:42.054Z,15.55
2023-05-20T22:34:10.409Z,13.60
2023-05-20T22:36:39.833Z,12.70
2023-05-20T22:39:07.976Z,16.08
2023-05-20T22:41:36.695Z,16.65
2023-05-20T22:44:05.187Z,14.27
2023-05-20T22:46:33.687Z,11.25
2023-05-20T22:49:02.109Z,16.95
2023-05-20T22:51:34.367Z,16.15
2023-05-20T22:54:02.181Z,16.02
2023-05-20T22:56:32.766Z,19.88
2023-05-20T22:59:01.308Z,21.75
2023-05-20T23:01:30.000Z,17.85
2023-05-20T23:03:58.259Z,16.73
2023-05-20T23:06:27.364Z,19.75
2023-05-20T23:08:55.493Z,17.92
2023-05-20T23:11:24.161Z,14.50
2023-05-20T23:13:52.204Z,16.65
2023-05-20T23:16:20.708Z,17.65
2023-05-20T23:18:48.637Z,12.40
2023-05-20T23:21:17.727Z,12.43
2023-05-20T23:23:46.349Z,25.42
2023-05-20T23:26:15.141Z,15.65
2023-05-20T23:28:43.122Z,18.17
2023-05-20T23:31:12.451Z,15.55
2023-05-20T23:33:40.590Z,13.10
2023-05-20T23:36:09.931Z,17.88
2023-05-20T23:38:37.725Z,18.38
2023-05-20T23:41:06.078Z,11.82
2023-05-20T23:43:34.094Z,14.30
2023-05-20T23:46:02.548Z,17.77
2023-05-20T23:48:30.164Z,14.70
2023-05-20T23:50:58.854Z,17.98
2023-05-20T23:53:26.716Z,13.77
2023-05-20T23:55:55.586Z,17.73
2023-05-20T23:58:24.075Z,14.02
